Time;durP1;ratioP1;P1;durP2;ratioP2;P2;SDS_P1;SDS_P2;PMS_P1;PMS_P2;Temp;Humidity;BMP_temperature;BMP_pressure;BME280_temperature;BME280_humidity;BME280_pressure;Samples;Min_cycle;Max_cycle;Signal;HPM_P1;HPM_P2
2021/03/10 00:00:46;;;;;;;;;;;;;;;20.73;46.88;101500.44;2090859;28;1709;-74
2021/03/10 00:01:47;;;;;;;;;;;;;;;20.74;47.07;101489.88;2091123;28;1649;-73
2021/03/10 00:02:48;;;;;;;;;;;;;;;20.74;46.94;101498.41;2090993;28;2056;-73
2021/03/10 00:03:49;;;;;;;;;;;;;;;20.74;46.90;101499.25;2091093;28;2094;-73
2021/03/10 00:04:50;;;;;;;;;;;;;;;20.74;47.06;101495.56;2091070;28;1709;-71
2021/03/10 00:05:51;;;;;;;;;;;;;;;20.74;47.13;101496.41;2091113;28;1564;-72
2021/03/10 00:06:51;;;;;;;;;;;;;;;20.74;46.90;101493.56;2091224;28;1867;-72
2021/03/10 00:07:52;;;;;;;;;;;;;;;20.74;47.04;101499.25;2091211;28;1020;-72
2021/03/10 00:08:53;;;;;;;;;;;;;;;20.74;47.01;101493.56;2091159;28;1722;-72
2021/03/10 00:09:54;;;;;;;;;;;;;;;20.74;47.07;101498.41;2091569;28;1095;-72
2021/03/10 00:10:54;;;;;;;;;;;;;;;20.75;47.09;101494.38;2093629;28;1689;-71
2021/03/10 00:11:55;;;;;;;;;;;;;;;20.75;47.20;101492.38;2089491;28;1821;-71
2021/03/10 00:12:56;;;;;;;;;;;;;;;20.76;47.20;101499.75;2087694;28;1087;-71
2021/03/10 00:13:57;;;;;;;;;;;;;;;20.77;47.28;101494.91;2083878;28;1694;-71
2021/03/10 00:14:58;;;;;;;;;;;;;;;20.76;47.23;101502.59;2091636;28;1631;-71
2021/03/10 00:15:58;;;;;;;;;;;;;;;20.76;47.08;101501.72;2091552;28;1199;-72
2021/03/10 00:17:00;;;;;;;;;;;;;;;20.76;47.29;101499.75;2090404;28;1846;-73
2021/03/10 00:18:01;;;;;;;;;;;;;;;20.76;47.23;101508.28;2090611;28;1684;-71
2021/03/10 00:19:01;;;;;;;;;;;;;;;20.76;47.20;101499.75;2091232;28;1977;-72
2021/03/10 00:20:02;;;;;;;;;;;;;;;20.77;47.11;101501.41;2090747;28;2036;-72
2021/03/10 00:21:03;;;;;;;;;;;;;;;20.77;47.11;101509.94;2087441;28;1940;-72
2021/03/10 00:22:04;;;;;;;;;;;;;;;20.77;47.27;101512.78;2090492;28;2106;-72
2021/03/10 00:23:04;;;;;;;;;;;;;;;20.77;47.11;101506.25;2089564;28;1100;-72
2021/03/10 00:24:05;;;;;;;;;;;;;;;20.77;47.19;101500.59;2090319;28;1709;-72
2021/03/10 00:25:06;;;;;;;;;;;;;;;20.77;46.96;101511.97;2082293;28;1275;-72
2021/03/10 00:26:07;;;;;;;;;;;;;;;20.76;47.03;101502.59;2082866;28;1107;-71
2021/03/10 00:27:07;;;;;;;;;;;;;;;20.77;47.13;101503.44;2094047;28;1068;-71
2021/03/10 00:28:10;;;;;;;;;;;;;;;20.77;47.08;101504.25;2091469;28;1718;-73
2021/03/10 00:29:10;;;;;;;;;;;;;;;20.77;47.33;101509.13;2092155;28;1585;-72
2021/03/10 00:30:11;;;;;;;;;;;;;;;20.77;47.35;101509.94;2091340;28;1886;-71
2021/03/10 00:31:12;;;;;;;;;;;;;;;20.78;47.32;101507.94;2091515;28;1076;-71
2021/03/10 00:32:13;;;;;;;;;;;;;;;20.78;47.26;101507.94;2091589;28;1736;-75
2021/03/10 00:33:14;;;;;;;;;;;;;;;20.79;47.25;101503.94;2088877;28;1910;-73
2021/03/10 00:34:15;;;;;;;;;;;;;;;20.76;47.25;101508.28;2091559;28;1637;-73
2021/03/10 00:35:15;;;;;;;;;;;;;;;20.75;47.24;101508.59;2093205;28;1299;-74
2021/03/10 00:36:16;;;;;;;;;;;;;;;20.73;47.25;101508.97;2090981;28;1654;-72
2021/03/10 00:37:17;;;;;;;;;;;;;;;20.72;47.28;101510.09;2091038;28;1076;-72
2021/03/10 00:38:18;;;;;;;;;;;;;;;20.73;47.15;101506.09;2090944;28;1655;-74
2021/03/10 00:39:18;;;;;;;;;;;;;;;20.74;47.20;101501.25;2090707;28;1917;-72
2021/03/10 00:40:19;;;;;;;;;;;;;;;20.73;47.09;101500.44;2091758;28;1044;-73
2021/03/10 00:41:20;;;;;;;;;;;;;;;20.74;47.02;101502.09;2089764;28;1777;-72
2021/03/10 00:42:21;;;;;;;;;;;;;;;20.74;47.11;101501.25;2091201;28;1752;-74
2021/03/10 00:43:21;;;;;;;;;;;;;;;20.74;46.97;101498.41;2091396;28;1263;-73
2021/03/10 00:44:22;;;;;;;;;;;;;;;20.74;47.07;101496.41;2090672;28;1625;-73
2021/03/10 00:45:23;;;;;;;;;;;;;;;20.75;47.01;101497.22;2091237;28;1801;-72
2021/03/10 00:46:24;;;;;;;;;;;;;;;20.74;47.02;101496.41;2089732;28;1712;-73
2021/03/10 00:47:25;;;;;;;;;;;;;;;20.75;46.95;101489.53;2091242;28;1714;-73
2021/03/10 00:48:26;;;;;;;;;;;;;;;20.76;46.93;101490.34;2091788;28;1715;-72
2021/03/10 00:49:27;;;;;;;;;;;;;;;20.76;46.85;101501.72;2090585;28;1875;-72
2021/03/10 00:50:28;;;;;;;;;;;;;;;20.76;46.81;101499.75;2090730;28;1714;-72
2021/03/10 00:51:29;;;;;;;;;;;;;;;20.76;46.92;101494.06;2091147;28;1639;-72
2021/03/10 00:52:30;;;;;;;;;;;;;;;20.76;46.89;101496.91;2089543;28;1771;-72
2021/03/10 00:53:31;;;;;;;;;;;;;;;20.76;46.80;101494.06;2091331;28;1036;-73
2021/03/10 00:54:31;;;;;;;;;;;;;;;20.77;46.76;101497.75;2090641;28;1677;-73
2021/03/10 00:55:32;;;;;;;;;;;;;;;20.76;46.82;101485.53;2091693;28;1707;-73
2021/03/10 00:56:33;;;;;;;;;;;;;;;20.76;46.73;101496.91;2091139;28;1443;-72
2021/03/10 00:57:33;;;;;;;;;;;;;;;20.77;46.95;101492.03;2091501;28;1758;-73
2021/03/10 00:58:34;;;;;;;;;;;;;;;20.77;46.75;101492.03;2091080;28;1059;-73
2021/03/10 00:59:35;;;;;;;;;;;;;;;20.76;46.74;101481.81;2090806;28;1988;-74
2021/03/10 01:00:36;;;;;;;;;;;;;;;20.77;46.87;101486.38;2091183;28;1099;-74
2021/03/10 01:01:37;;;;;;;;;;;;;;;20.77;46.90;101480.69;2091589;28;1355;-74
2021/03/10 01:02:38;;;;;;;;;;;;;;;20.77;47.01;101494.91;2090594;28;1730;-74
2021/03/10 01:03:39;;;;;;;;;;;;;;;20.77;46.97;101486.38;2090707;28;1031;-73
2021/03/10 01:04:40;;;;;;;;;;;;;;;20.77;46.76;101487.19;2090380;28;1751;-74
2021/03/10 01:05:41;;;;;;;;;;;;;;;20.76;46.94;101482.69;2089197;28;1687;-74
2021/03/10 01:06:41;;;;;;;;;;;;;;;20.77;46.78;101487.19;2088004;28;1357;-74
2021/03/10 01:07:42;;;;;;;;;;;;;;;20.77;46.77;101481.50;2090704;28;1823;-75
2021/03/10 01:08:43;;;;;;;;;;;;;;;20.76;46.75;101485.53;2085055;28;1134;-74
2021/03/10 01:09:44;;;;;;;;;;;;;;;20.76;46.92;101479.84;2091032;28;1677;-74
2021/03/10 01:10:47;;;;;;;;;;;;;;;20.77;46.92;101490.03;2091517;28;1112;-75
2021/03/10 01:11:48;;;;;;;;;;;;;;;20.78;46.90;101488.84;2089267;28;1377;-74
2021/03/10 01:12:48;;;;;;;;;;;;;;;20.78;46.83;101488.03;2091093;28;1694;-72
2021/03/10 01:13:49;;;;;;;;;;;;;;;20.78;46.87;101483.16;2091542;28;1067;-73
2021/03/10 01:14:50;;;;;;;;;;;;;;;20.78;46.92;101488.03;2090308;28;1650;-72
2021/03/10 01:15:51;;;;;;;;;;;;;;;20.78;46.74;101485.19;2089176;28;2047;-72
2021/03/10 01:16:51;;;;;;;;;;;;;;;20.77;46.89;101487.19;2091169;28;1822;-72
2021/03/10 01:17:52;;;;;;;;;;;;;;;20.76;46.73;101482.69;2089695;28;1802;-73
2021/03/10 01:18:53;;;;;;;;;;;;;;;20.77;46.75;101490.03;2089775;28;2054;-74
2021/03/10 01:19:54;;;;;;;;;;;;;;;20.77;46.77;101483.53;2090774;28;1360;-69
2021/03/10 01:20:55;;;;;;;;;;;;;;;20.77;47.02;101492.88;2095631;28;1976;-72
2021/03/10 01:21:55;;;;;;;;;;;;;;;20.79;47.02;101487.69;2091010;28;2190;-73
2021/03/10 01:22:56;;;;;;;;;;;;;;;20.78;46.93;101480.31;2081383;28;2611;-72
2021/03/10 01:23:57;;;;;;;;;;;;;;;20.79;46.96;101484.84;2081626;28;1798;-72
2021/03/10 01:24:58;;;;;;;;;;;;;;;20.78;47.09;101471.78;2089912;28;1834;-72
2021/03/10 01:25:58;;;;;;;;;;;;;;;20.78;46.91;101477.47;2090547;28;1739;-70
2021/03/10 01:26:59;;;;;;;;;;;;;;;20.78;47.04;101474.63;2090419;28;1794;-73
2021/03/10 01:28:00;;;;;;;;;;;;;;;20.78;47.15;101477.47;2091120;28;1086;-73
2021/03/10 01:29:01;;;;;;;;;;;;;;;20.80;47.06;101474.31;2089317;28;1467;-72
2021/03/10 01:30:01;;;;;;;;;;;;;;;20.80;47.09;101474.31;2096094;28;1644;-73
2021/03/10 01:31:02;;;;;;;;;;;;;;;20.80;47.23;101478.00;2091084;28;1099;-73
2021/03/10 01:32:03;;;;;;;;;;;;;;;20.80;47.13;101478.00;2092119;28;1826;-73
2021/03/10 01:33:04;;;;;;;;;;;;;;;20.80;47.14;101480.81;2090368;28;2052;-73
2021/03/10 01:34:05;;;;;;;;;;;;;;;20.81;47.06;101470.28;2090172;28;1778;-73
2021/03/10 01:35:06;;;;;;;;;;;;;;;20.80;47.10;101480.81;2089359;28;1799;-74
2021/03/10 01:36:07;;;;;;;;;;;;;;;20.80;47.18;101472.28;2090053;28;1801;-74
2021/03/10 01:37:09;;;;;;;;;;;;;;;20.80;47.15;101469.44;2091557;28;2022;-75
2021/03/10 01:38:10;;;;;;;;;;;;;;;20.81;47.19;101475.97;2091069;28;1798;-75
2021/03/10 01:39:11;;;;;;;;;;;;;;;20.80;47.04;101477.16;2090583;28;1973;-75
2021/03/10 01:40:11;;;;;;;;;;;;;;;20.80;47.10;101474.31;2090194;28;1868;-74
2021/03/10 01:41:12;;;;;;;;;;;;;;;20.80;47.24;101486.50;2091526;28;1846;-74
2021/03/10 01:42:13;;;;;;;;;;;;;;;20.79;47.13;101473.47;2090708;28;1138;-74
2021/03/10 01:43:14;;;;;;;;;;;;;;;20.79;47.25;101482.00;2090841;28;1065;-74
2021/03/10 01:44:15;;;;;;;;;;;;;;;20.79;47.16;101479.16;2090761;28;1036;-73
2021/03/10 01:45:16;;;;;;;;;;;;;;;20.79;47.04;101479.16;2089926;28;1812;-73
2021/03/10 01:46:17;;;;;;;;;;;;;;;20.79;47.02;101481.19;2089381;28;1643;-74
2021/03/10 01:47:18;;;;;;;;;;;;;;;20.78;47.20;101480.31;2088440;28;1735;-73
2021/03/10 01:48:19;;;;;;;;;;;;;;;20.79;46.98;101489.72;2090232;28;1818;-74
2021/03/10 01:49:19;;;;;;;;;;;;;;;20.77;46.98;101478.66;2090550;28;1051;-74
2021/03/10 01:50:20;;;;;;;;;;;;;;;20.77;47.12;101481.50;2090767;28;1399;-73
2021/03/10 01:51:21;;;;;;;;;;;;;;;20.78;47.19;101488.03;2091564;28;1767;-74
2021/03/10 01:52:22;;;;;;;;;;;;;;;20.78;47.13;101485.19;2090891;28;1022;-74
2021/03/10 01:53:22;;;;;;;;;;;;;;;20.78;47.16;101485.19;2089705;28;1763;-74
2021/03/10 01:54:23;;;;;;;;;;;;;;;20.77;47.12;101478.66;2089993;28;2211;-75
2021/03/10 01:55:24;;;;;;;;;;;;;;;20.78;47.03;101482.34;2090110;28;1737;-83
2021/03/10 01:56:25;;;;;;;;;;;;;;;20.78;47.18;101488.84;2090497;28;1731;-76
2021/03/10 01:57:25;;;;;;;;;;;;;;;20.77;47.11;101481.50;2090441;28;1715;-73
2021/03/10 01:58:26;;;;;;;;;;;;;;;20.78;47.25;101483.16;2090096;28;1810;-73
2021/03/10 01:59:27;;;;;;;;;;;;;;;20.77;47.23;101481.50;2090801;28;2334;-73
2021/03/10 02:00:29;;;;;;;;;;;;;;;20.76;47.15;101479.84;2089875;28;1692;-72
2021/03/10 02:01:30;;;;;;;;;;;;;;;20.77;47.08;101481.50;2089384;28;1371;-73
2021/03/10 02:02:35;;;;;;;;;;;;;;;20.77;47.10;101478.66;2089999;28;2033;-72
2021/03/10 02:03:36;;;;;;;;;;;;;;;20.77;47.00;101478.66;2090491;28;1699;-73
2021/03/10 02:04:37;;;;;;;;;;;;;;;20.77;47.05;101475.81;2090505;28;1134;-74
2021/03/10 02:05:38;;;;;;;;;;;;;;;20.77;46.96;101480.69;2089943;28;1718;-73
2021/03/10 02:06:39;;;;;;;;;;;;;;;20.77;47.02;101472.97;2089668;28;1961;-73
2021/03/10 02:07:40;;;;;;;;;;;;;;;20.78;47.02;101474.63;2090319;28;1540;-73
2021/03/10 02:08:40;;;;;;;;;;;;;;;20.78;47.14;101476.66;2089574;28;1982;-73
2021/03/10 02:09:41;;;;;;;;;;;;;;;20.78;47.04;101479.50;2089784;28;1851;-73
2021/03/10 02:10:42;;;;;;;;;;;;;;;20.78;47.11;101482.34;2090661;28;1067;-73
2021/03/10 02:11:43;;;;;;;;;;;;;;;20.79;47.02;101484.84;2090107;28;1967;-73
2021/03/10 02:12:44;;;;;;;;;;;;;;;20.79;47.25;101473.47;2090035;28;1726;-73
2021/03/10 02:13:45;;;;;;;;;;;;;;;20.79;47.22;101476.31;2090043;28;2067;-72
2021/03/10 02:14:45;;;;;;;;;;;;;;;20.79;47.13;101475.50;2091151;28;1878;-72
2021/03/10 02:15:46;;;;;;;;;;;;;;;20.79;47.21;101476.31;2089628;28;1765;-73
2021/03/10 02:16:47;;;;;;;;;;;;;;;20.79;47.25;101481.19;2090502;28;2113;-72
2021/03/10 02:17:48;;;;;;;;;;;;;;;20.78;47.35;101480.31;2093184;28;1649;-74
2021/03/10 02:18:49;;;;;;;;;;;;;;;20.77;47.13;101477.81;2090100;28;1733;-74
2021/03/10 02:19:50;;;;;;;;;;;;;;;20.78;47.18;101477.47;2090566;28;1902;-74
2021/03/10 02:20:50;;;;;;;;;;;;;;;20.79;47.27;101479.16;2088219;28;1731;-72
2021/03/10 02:21:51;;;;;;;;;;;;;;;20.81;47.26;101481.66;2089836;28;1708;-73
2021/03/10 02:22:52;;;;;;;;;;;;;;;20.80;47.30;101478.00;2089340;28;1794;-73
2021/03/10 02:23:53;;;;;;;;;;;;;;;20.80;47.36;101474.31;2089759;28;1071;-72
2021/03/10 02:24:53;;;;;;;;;;;;;;;20.80;47.25;101480.00;2089467;28;1656;-73
2021/03/10 02:25:54;;;;;;;;;;;;;;;20.80;47.30;101480.00;2090606;28;1135;-73
2021/03/10 02:26:55;;;;;;;;;;;;;;;20.80;47.28;101480.81;2088925;28;1716;-72
2021/03/10 02:27:56;;;;;;;;;;;;;;;20.80;47.48;101480.81;2088189;28;1815;-73
2021/03/10 02:28:56;;;;;;;;;;;;;;;20.79;47.42;101479.16;2087762;28;1660;-72
2021/03/10 02:29:57;;;;;;;;;;;;;;;20.80;47.51;101483.69;2088178;28;1713;-72
2021/03/10 02:30:58;;;;;;;;;;;;;;;20.80;47.45;101492.22;2088216;28;1764;-72
2021/03/10 02:31:59;;;;;;;;;;;;;;;20.81;47.49;101487.34;2089676;28;1667;-73
2021/03/10 02:33:00;;;;;;;;;;;;;;;20.80;47.47;101483.69;2087894;28;2135;-73
2021/03/10 02:34:01;;;;;;;;;;;;;;;20.80;47.55;101482.84;2081886;28;1048;-74
2021/03/10 02:35:02;;;;;;;;;;;;;;;20.80;47.51;101483.69;2082329;28;1806;-72
2021/03/10 02:36:02;;;;;;;;;;;;;;;20.79;47.58;101478.34;2081998;28;1095;-72
2021/03/10 02:37:03;;;;;;;;;;;;;;;20.79;47.46;101479.16;2081535;28;1771;-71
2021/03/10 02:38:04;;;;;;;;;;;;;;;20.79;47.66;101479.16;2081444;28;1630;-73
2021/03/10 02:39:05;;;;;;;;;;;;;;;20.79;47.54;101476.31;2081562;28;1744;-71
2021/03/10 02:40:05;;;;;;;;;;;;;;;20.79;47.73;101478.34;2081522;28;1828;-73
2021/03/10 02:41:06;;;;;;;;;;;;;;;20.78;47.66;101477.47;2081644;28;1601;-71
2021/03/10 02:42:07;;;;;;;;;;;;;;;20.82;48.11;101474.81;2082633;28;1143;-73
2021/03/10 02:43:08;;;;;;;;;;;;;;;20.80;47.78;101478.00;2081580;28;2090;-72
2021/03/10 02:44:09;;;;;;;;;;;;;;;20.80;48.03;101482.84;2073238;28;1104;-73
2021/03/10 02:45:09;;;;;;;;;;;;;;;20.80;47.83;101486.50;2073258;28;1864;-73
2021/03/10 02:46:10;;;;;;;;;;;;;;;20.80;47.93;101480.00;2081590;28;1638;-73
2021/03/10 02:47:11;;;;;;;;;;;;;;;20.79;47.91;101484.84;2081000;28;1974;-70
2021/03/10 02:48:13;;;;;;;;;;;;;;;20.80;47.79;101489.34;2084027;28;1821;-74
2021/03/10 02:49:14;;;;;;;;;;;;;;;20.78;47.91;101488.84;2081910;28;1120;-73
2021/03/10 02:50:15;;;;;;;;;;;;;;;20.79;47.77;101481.19;2081524;28;1775;-72
2021/03/10 02:51:16;;;;;;;;;;;;;;;20.78;47.72;101491.69;2082040;28;1704;-74
2021/03/10 02:52:17;;;;;;;;;;;;;;;20.78;47.81;101486.00;2081412;28;1613;-72
2021/03/10 02:53:18;;;;;;;;;;;;;;;20.78;47.72;101491.69;2081440;28;1523;-73
2021/03/10 02:54:18;;;;;;;;;;;;;;;20.77;47.80;101478.66;2082031;28;1131;-73
2021/03/10 02:55:19;;;;;;;;;;;;;;;20.77;47.83;101484.34;2080993;28;1786;-73
2021/03/10 02:56:20;;;;;;;;;;;;;;;20.77;47.83;101478.66;2081930;28;1151;-73
2021/03/10 02:57:21;;;;;;;;;;;;;;;20.78;47.71;101479.50;2081751;28;1916;-73
2021/03/10 02:58:21;;;;;;;;;;;;;;;20.77;47.68;101472.97;2084920;28;1589;-72
2021/03/10 02:59:22;;;;;;;;;;;;;;;20.77;47.76;101484.34;2082250;28;1910;-72
2021/03/10 03:00:23;;;;;;;;;;;;;;;20.77;47.77;101484.34;2082265;28;1751;-75
2021/03/10 03:01:24;;;;;;;;;;;;;;;20.76;47.79;101482.69;2081113;28;2086;-74
2021/03/10 03:02:25;;;;;;;;;;;;;;;20.77;47.65;101478.66;2081683;28;1711;-74
2021/03/10 03:03:26;;;;;;;;;;;;;;;20.76;47.66;101491.22;2081195;28;1701;-75
2021/03/10 03:04:27;;;;;;;;;;;;;;;20.76;47.69;101482.69;2080943;28;1657;-75
2021/03/10 03:05:27;;;;;;;;;;;;;;;20.76;47.65;101488.38;2081487;28;1633;-75
2021/03/10 03:06:28;;;;;;;;;;;;;;;20.77;47.68;101492.03;2078819;28;1107;-74
2021/03/10 03:07:29;;;;;;;;;;;;;;;20.77;47.59;101486.38;2081427;28;1080;-75
2021/03/10 03:08:30;;;;;;;;;;;;;;;20.77;47.76;101483.53;2081283;28;1742;-73
2021/03/10 03:09:30;;;;;;;;;;;;;;;20.77;47.67;101490.03;2081434;28;1760;-73
2021/03/10 03:10:31;;;;;;;;;;;;;;;20.76;47.57;101482.69;2081560;28;1119;-75
2021/03/10 03:11:32;;;;;;;;;;;;;;;20.77;47.67;101483.53;2078866;28;1906;-75
2021/03/10 03:12:33;;;;;;;;;;;;;;;20.77;47.73;101490.03;2078157;28;1685;-75
2021/03/10 03:13:33;;;;;;;;;;;;;;;20.76;47.68;101479.84;2081577;28;1658;-74
2021/03/10 03:14:34;;;;;;;;;;;;;;;20.77;47.59;101487.19;2081701;28;1035;-74
2021/03/10 03:15:35;;;;;;;;;;;;;;;20.77;47.65;101486.38;2081705;28;965;-75
2021/03/10 03:16:36;;;;;;;;;;;;;;;20.77;47.60;101490.03;2081826;28;1590;-75
2021/03/10 03:17:37;;;;;;;;;;;;;;;20.77;47.63;101487.19;2081143;28;1657;-75
2021/03/10 03:18:38;;;;;;;;;;;;;;;20.77;47.55;101486.38;2081154;28;1813;-74
2021/03/10 03:19:39;;;;;;;;;;;;;;;20.77;47.73;101484.34;2081514;28;1977;-75
2021/03/10 03:20:40;;;;;;;;;;;;;;;20.78;47.52;101493.72;2081684;28;1651;-74
2021/03/10 03:21:41;;;;;;;;;;;;;;;20.78;47.75;101488.03;2081136;28;1775;-75
2021/03/10 03:22:41;;;;;;;;;;;;;;;20.78;47.52;101488.84;2081333;28;2132;-74
2021/03/10 03:23:42;;;;;;;;;;;;;;;20.77;47.68;101481.50;2080793;28;1815;-75
2021/03/10 03:24:43;;;;;;;;;;;;;;;20.77;47.50;101480.69;2083663;28;1685;-74
2021/03/10 03:25:44;;;;;;;;;;;;;;;20.77;47.49;101480.69;2083758;28;1031;-74
2021/03/10 03:26:45;;;;;;;;;;;;;;;20.77;47.63;101477.81;2080996;28;1706;-74
2021/03/10 03:27:45;;;;;;;;;;;;;;;20.77;47.48;101480.69;2083180;28;1157;-75
2021/03/10 03:28:46;;;;;;;;;;;;;;;20.77;47.62;101483.53;2082675;28;1767;-75
2021/03/10 03:29:47;;;;;;;;;;;;;;;20.77;47.52;101477.81;2083203;28;1712;-74
2021/03/10 03:30:48;;;;;;;;;;;;;;;20.77;47.61;101480.69;2083349;28;1100;-74
2021/03/10 03:31:49;;;;;;;;;;;;;;;20.77;47.75;101481.50;2082186;28;1716;-75
2021/03/10 03:32:50;;;;;;;;;;;;;;;20.77;47.58;101480.69;2084147;28;1945;-74
2021/03/10 03:33:51;;;;;;;;;;;;;;;20.77;47.66;101487.19;2091118;28;1877;-74
2021/03/10 03:34:52;;;;;;;;;;;;;;;20.78;47.54;101479.50;2082641;28;1064;-74
2021/03/10 03:36:13;;;;;;;;;;;;;;;20.77;47.67;101484.34;2084665;28;1647;-75
2021/03/10 03:37:14;;;;;;;;;;;;;;;20.77;47.62;101478.66;2091428;28;1320;-74
2021/03/10 03:38:14;;;;;;;;;;;;;;;20.77;47.74;101481.50;2090192;28;2040;-74
2021/03/10 03:39:16;;;;;;;;;;;;;;;20.77;47.64;101486.38;2091489;28;1273;-74
2021/03/10 03:40:16;;;;;;;;;;;;;;;20.78;47.74;101482.34;2090329;28;1985;-74
2021/03/10 03:41:17;;;;;;;;;;;;;;;20.78;47.58;101485.19;2082169;28;2023;-74
2021/03/10 03:42:18;;;;;;;;;;;;;;;20.77;47.57;101484.34;2083020;28;1075;-74
2021/03/10 03:43:18;;;;;;;;;;;;;;;20.77;47.58;101487.19;2090692;28;1772;-75
2021/03/10 03:44:19;;;;;;;;;;;;;;;20.78;47.77;101483.16;2091529;28;1770;-74
2021/03/10 03:45:20;;;;;;;;;;;;;;;20.77;47.67;101487.19;2091640;28;1071;-74
2021/03/10 03:46:21;;;;;;;;;;;;;;;20.78;47.76;101493.72;2091103;28;1759;-75
2021/03/10 03:47:22;;;;;;;;;;;;;;;20.77;48.05;101483.53;2091196;28;2008;-73
2021/03/10 03:48:23;;;;;;;;;;;;;;;20.76;47.77;101485.53;2091125;28;1738;-74
2021/03/10 03:49:24;;;;;;;;;;;;;;;20.77;47.76;101490.03;2091417;28;1096;-74
2021/03/10 03:50:25;;;;;;;;;;;;;;;20.78;47.78;101488.84;2090668;28;1613;-74
2021/03/10 03:51:26;;;;;;;;;;;;;;;20.77;47.88;101490.03;2091471;28;1064;-74
2021/03/10 03:52:26;;;;;;;;;;;;;;;20.78;47.77;101483.16;2090964;28;1685;-74
2021/03/10 03:53:27;;;;;;;;;;;;;;;20.78;48.14;101485.19;2091555;28;1635;-74
2021/03/10 03:54:28;;;;;;;;;;;;;;;20.78;47.87;101486.00;2092691;28;1636;-75
2021/03/10 03:55:29;;;;;;;;;;;;;;;20.78;47.95;101482.34;2092319;28;1974;-74
2021/03/10 03:56:29;;;;;;;;;;;;;;;20.78;47.89;101476.66;2091049;28;1135;-74
2021/03/10 03:57:30;;;;;;;;;;;;;;;20.78;48.11;101483.16;2093700;28;1685;-74
2021/03/10 03:58:31;;;;;;;;;;;;;;;20.78;47.96;101482.34;2092925;28;1103;-75
2021/03/10 03:59:32;;;;;;;;;;;;;;;20.77;47.99;101489.22;2093563;28;1973;-74
2021/03/10 04:00:32;;;;;;;;;;;;;;;20.77;48.10;101490.03;2092303;28;1708;-73
2021/03/10 04:01:33;;;;;;;;;;;;;;;20.77;47.97;101487.19;2089640;28;1698;-73
2021/03/10 04:02:34;;;;;;;;;;;;;;;20.78;47.97;101496.56;2090756;28;1767;-73
2021/03/10 04:03:35;;;;;;;;;;;;;;;20.77;48.02;101492.88;2091044;28;1793;-72
2021/03/10 04:04:36;;;;;;;;;;;;;;;20.77;47.98;101487.19;2092836;28;1164;-73
2021/03/10 04:05:36;;;;;;;;;;;;;;;20.77;48.14;101492.88;2093395;28;1613;-72
2021/03/10 04:06:41;;;;;;;;;;;;;;;20.78;48.14;101494.53;2091409;28;1157;-72
2021/03/10 04:07:41;;;;;;;;;;;;;;;20.78;48.19;101488.84;2093088;28;1762;-73
2021/03/10 04:08:42;;;;;;;;;;;;;;;20.79;48.40;101498.25;2091122;28;1647;-72
2021/03/10 04:09:43;;;;;;;;;;;;;;;20.79;48.30;101495.41;2091649;28;1111;-73
2021/03/10 04:10:44;;;;;;;;;;;;;;;20.80;48.26;101497.06;2092023;28;1250;-73
2021/03/10 04:11:45;;;;;;;;;;;;;;;20.79;48.43;101496.22;2089232;28;1811;-73
2021/03/10 04:12:46;;;;;;;;;;;;;;;20.79;48.26;101498.25;2090440;28;1750;-74
2021/03/10 04:13:46;;;;;;;;;;;;;;;20.79;48.34;101495.41;2091372;28;1092;-73
2021/03/10 04:14:47;;;;;;;;;;;;;;;20.79;48.45;101501.91;2094720;28;1762;-73
2021/03/10 04:15:48;;;;;;;;;;;;;;;20.79;48.51;101496.22;2091025;28;1586;-74
2021/03/10 04:16:49;;;;;;;;;;;;;;;20.79;48.52;101496.22;2093436;28;1072;-74
2021/03/10 04:17:50;;;;;;;;;;;;;;;20.79;48.55;101493.38;2090656;28;1889;-74
2021/03/10 04:18:50;;;;;;;;;;;;;;;20.79;48.33;101503.94;2091259;28;1137;-74
2021/03/10 04:19:51;;;;;;;;;;;;;;;20.76;48.40;101494.06;2092828;28;1985;-74
2021/03/10 04:20:52;;;;;;;;;;;;;;;20.78;48.36;101490.88;2091143;28;1709;-74
2021/03/10 04:21:53;;;;;;;;;;;;;;;20.79;48.29;101493.38;2090550;28;1817;-74
2021/03/10 04:22:53;;;;;;;;;;;;;;;20.78;48.44;101494.53;2092445;28;1826;-74
2021/03/10 04:23:54;;;;;;;;;;;;;;;20.78;48.23;101494.53;2092774;28;2185;-75
2021/03/10 04:24:55;;;;;;;;;;;;;;;20.78;48.46;101493.72;2090846;28;1786;-74
2021/03/10 04:25:56;;;;;;;;;;;;;;;20.79;48.46;101496.22;2093341;28;1626;-75
2021/03/10 04:26:57;;;;;;;;;;;;;;;20.78;48.34;101488.84;2093847;28;1797;-74
2021/03/10 04:27:57;;;;;;;;;;;;;;;20.77;48.40;101490.03;2090923;28;1846;-74
2021/03/10 04:28:58;;;;;;;;;;;;;;;20.79;48.39;101490.53;2091051;28;1687;-74
2021/03/10 04:29:59;;;;;;;;;;;;;;;20.78;48.35;101488.84;2093327;28;1623;-73
2021/03/10 04:31:00;;;;;;;;;;;;;;;20.79;48.27;101489.72;2088860;28;2075;-74
2021/03/10 04:32:01;;;;;;;;;;;;;;;20.79;48.42;101489.72;2090161;28;1797;-75
2021/03/10 04:33:02;;;;;;;;;;;;;;;20.78;48.42;101491.69;2090472;28;1646;-74
2021/03/10 04:34:03;;;;;;;;;;;;;;;20.78;48.35;101488.84;2091262;28;1133;-74
2021/03/10 04:35:04;;;;;;;;;;;;;;;20.79;48.40;101498.25;2091185;28;1071;-74
2021/03/10 04:36:05;;;;;;;;;;;;;;;20.79;48.27;101495.41;2094507;28;1647;-74
2021/03/10 04:37:06;;;;;;;;;;;;;;;20.79;48.43;101501.09;2092582;28;1888;-74
2021/03/10 04:38:06;;;;;;;;;;;;;;;20.79;48.38;101496.22;2089896;28;1716;-74
2021/03/10 04:39:07;;;;;;;;;;;;;;;20.80;48.34;101508.44;2089776;28;2101;-74
2021/03/10 04:40:08;;;;;;;;;;;;;;;20.80;48.47;101497.06;2090913;28;1906;-74
2021/03/10 04:41:09;;;;;;;;;;;;;;;20.79;48.49;101507.59;2090365;28;1822;-75
2021/03/10 04:42:10;;;;;;;;;;;;;;;20.79;48.57;101507.59;2090636;28;1243;-74
2021/03/10 04:43:10;;;;;;;;;;;;;;;20.79;48.57;101501.91;2090233;28;1809;-75
2021/03/10 04:44:11;;;;;;;;;;;;;;;20.79;48.54;101507.59;2090647;28;1727;-74
2021/03/10 04:45:12;;;;;;;;;;;;;;;20.79;48.49;101510.44;2090626;28;1619;-74
2021/03/10 04:46:14;;;;;;;;;;;;;;;20.79;48.43;101507.59;2095679;28;1549;-74
2021/03/10 04:47:15;;;;;;;;;;;;;;;20.79;48.46;101510.44;2091476;28;1655;-75
2021/03/10 04:48:16;;;;;;;;;;;;;;;20.79;48.36;101509.63;2090657;28;2007;-74
2021/03/10 04:49:16;;;;;;;;;;;;;;;20.79;48.38;101512.47;2090851;28;1810;-74
2021/03/10 04:50:17;;;;;;;;;;;;;;;20.78;48.42;101511.59;2090360;28;1778;-74
2021/03/10 04:51:18;;;;;;;;;;;;;;;20.79;48.48;101512.47;2090677;28;1738;-74
2021/03/10 04:52:19;;;;;;;;;;;;;;;20.78;48.60;101514.44;2090697;28;1730;-74
2021/03/10 04:53:20;;;;;;;;;;;;;;;20.78;48.34;101514.44;2090082;28;1761;-74
2021/03/10 04:54:20;;;;;;;;;;;;;;;20.79;48.43;101515.31;2090629;28;1861;-74
2021/03/10 04:55:21;;;;;;;;;;;;;;;20.78;48.38;101514.44;2090403;28;1533;-74
2021/03/10 04:56:22;;;;;;;;;;;;;;;20.78;48.45;101517.28;2090708;28;1793;-74
2021/03/10 04:57:22;;;;;;;;;;;;;;;20.77;48.42;101517.66;2090872;28;1087;-74
2021/03/10 04:58:23;;;;;;;;;;;;;;;20.77;48.63;101509.13;2090777;28;1153;-74
2021/03/10 04:59:24;;;;;;;;;;;;;;;20.78;48.52;101513.63;2090893;28;1759;-74
2021/03/10 05:00:25;;;;;;;;;;;;;;;20.78;48.44;101522.97;2088718;28;2009;-74
2021/03/10 05:01:25;;;;;;;;;;;;;;;20.78;48.44;101522.97;2090957;28;1597;-74
2021/03/10 05:02:26;;;;;;;;;;;;;;;20.78;48.50;101522.97;2094793;28;1071;-74
2021/03/10 05:03:27;;;;;;;;;;;;;;;20.77;48.50;101518.47;2087671;28;1715;-74
2021/03/10 05:04:28;;;;;;;;;;;;;;;20.78;48.57;101519.31;2090850;28;1837;-74
2021/03/10 05:05:29;;;;;;;;;;;;;;;20.77;48.38;101521.31;2090533;28;1784;-74
2021/03/10 05:06:30;;;;;;;;;;;;;;;20.78;48.61;101533.53;2095574;28;1645;-74
2021/03/10 05:07:30;;;;;;;;;;;;;;;20.77;48.58;101521.31;2090565;28;1691;-74
2021/03/10 05:08:31;;;;;;;;;;;;;;;20.77;48.56;101521.31;2090641;28;1240;-75
2021/03/10 05:09:32;;;;;;;;;;;;;;;20.77;48.55;101524.16;2092350;28;1813;-75
2021/03/10 05:10:33;;;;;;;;;;;;;;;20.78;48.47;101525.81;2083594;28;1228;-75
2021/03/10 05:11:34;;;;;;;;;;;;;;;20.78;48.47;101525.00;2092327;28;2097;-75
2021/03/10 05:12:34;;;;;;;;;;;;;;;20.77;48.55;101529.84;2089034;28;1689;-75
2021/03/10 05:13:35;;;;;;;;;;;;;;;20.77;48.47;101526.19;2088852;28;1775;-75
2021/03/10 05:14:36;;;;;;;;;;;;;;;20.77;48.71;101529.84;2090055;28;1691;-76
2021/03/10 05:15:37;;;;;;;;;;;;;;;20.76;48.56;101531.03;2085936;28;1151;-76
2021/03/10 05:16:38;;;;;;;;;;;;;;;20.77;48.61;101527.00;2091156;28;1441;-76
2021/03/10 05:17:39;;;;;;;;;;;;;;;20.77;48.65;101532.69;2089002;28;1730;-75